createdAt,value
2022-11-14T00:07:14.225Z,17.55
2022-11-14T00:17:15.785Z,17.53
2022-11-14T00:27:17.194Z,17.49
2022-11-14T00:37:18.690Z,17.49
2022-11-14T00:47:20.116Z,17.46
2022-11-14T00:57:21.491Z,17.42
2022-11-14T01:07:22.889Z,17.42
2022-11-14T01:17:24.278Z,17.38
2022-11-14T01:27:25.736Z,17.37
2022-11-14T01:37:27.144Z,17.35
2022-11-14T01:47:30.873Z,17.33
2022-11-14T01:57:34.499Z,17.30
2022-11-14T02:07:38.303Z,17.26
2022-11-14T02:17:40.504Z,17.22
2022-11-14T02:27:41.877Z,17.22
2022-11-14T02:37:43.346Z,17.19
2022-11-14T02:47:45.133Z,17.21
2022-11-14T02:57:46.534Z,17.20
2022-11-14T03:07:48.085Z,17.18
2022-11-14T03:17:49.803Z,17.16
2022-11-14T03:27:51.188Z,17.10
2022-11-14T03:37:56.202Z,17.08
2022-11-14T03:47:58.060Z,17.07
2022-11-14T03:57:59.714Z,17.02
2022-11-14T04:08:01.091Z,17.01
2022-11-14T04:18:02.466Z,16.97
2022-11-14T04:28:04.039Z,16.95
2022-11-14T04:38:05.580Z,16.92
2022-11-14T04:48:06.961Z,16.88
2022-11-14T04:58:08.822Z,16.86
2022-11-14T05:08:10.351Z,16.83
2022-11-14T05:18:11.810Z,16.89
2022-11-14T05:28:13.625Z,17.15
2022-11-14T05:38:15.608Z,17.43
2022-11-14T05:48:17.272Z,17.66
2022-11-14T05:58:19.397Z,17.88
2022-11-14T06:08:20.931Z,18.06
2022-11-14T06:18:22.320Z,18.18
2022-11-14T06:28:23.700Z,18.28
2022-11-14T06:38:25.238Z,18.38
2022-11-14T06:48:26.786Z,18.49
2022-11-14T06:58:36.569Z,18.64
2022-11-14T07:08:38.290Z,18.71
2022-11-14T07:18:39.830Z,18.75
2022-11-14T07:28:42.937Z,18.82
2022-11-14T07:38:44.543Z,18.91
2022-11-14T07:48:46.037Z,19.00
2022-11-14T07:58:47.590Z,19.03
2022-11-14T08:08:49.015Z,19.06
2022-11-14T08:18:50.409Z,19.13
2022-11-14T08:28:54.683Z,19.17
2022-11-14T08:39:01.558Z,19.22
2022-11-14T08:49:03.364Z,19.27
2022-11-14T08:59:05.024Z,19.38
2022-11-14T09:09:06.393Z,19.38
2022-11-14T09:19:07.841Z,19.27
2022-11-14T09:29:09.230Z,19.19
2022-11-14T09:39:10.620Z,19.11
2022-11-14T09:49:37.987Z,19.04
2022-11-14T09:59:39.353Z,18.98
2022-11-14T10:09:52.104Z,18.93
2022-11-14T10:20:12.090Z,18.85
2022-11-14T10:30:17.068Z,18.79
2022-11-14T10:40:22.859Z,18.76
2022-11-14T10:50:56.029Z,18.80
2022-11-14T11:01:19.058Z,18.89
2022-11-14T11:11:32.550Z,19.05
2022-11-14T11:21:46.880Z,19.18
2022-11-14T11:31:55.664Z,19.33
2022-11-14T11:42:13.758Z,19.47
2022-11-14T11:52:33.688Z,19.55
2022-11-14T12:02:36.131Z,19.59
2022-11-14T12:12:43.616Z,19.52
2022-11-14T12:23:09.712Z,19.47
2022-11-14T12:33:20.801Z,19.39
2022-11-14T12:43:35.964Z,19.41
2022-11-14T12:53:39.332Z,19.29
2022-11-14T13:03:59.506Z,19.14
2022-11-14T13:14:20.378Z,19.02
2022-11-14T13:24:21.907Z,18.92
2022-11-14T13:35:06.471Z,18.92
2022-11-14T13:45:35.016Z,18.91
2022-11-14T13:55:52.162Z,18.87
2022-11-14T14:06:15.999Z,18.82
2022-11-14T14:16:44.427Z,18.75
2022-11-14T14:27:14.121Z,18.71
2022-11-14T14:37:22.325Z,18.66
2022-11-14T14:47:33.925Z,18.61
2022-11-14T14:57:35.371Z,18.55
2022-11-14T15:07:38.429Z,18.51
2022-11-14T15:17:39.876Z,18.45
2022-11-14T15:27:51.685Z,18.41
2022-11-14T15:38:15.620Z,18.34
2022-11-14T15:48:21.053Z,18.33
2022-11-14T15:58:28.379Z,18.29
2022-11-14T16:08:30.798Z,18.22
2022-11-14T16:18:32.378Z,18.19
2022-11-14T16:28:33.816Z,18.14
2022-11-14T16:38:35.182Z,18.08
2022-11-14T16:48:36.552Z,18.04
2022-11-14T16:58:39.758Z,18.00
2022-11-14T17:08:41.210Z,17.94
2022-11-14T17:18:43.054Z,17.91
2022-11-14T17:28:46.117Z,17.83
2022-11-14T17:38:47.530Z,17.82
2022-11-14T17:48:48.934Z,17.80
2022-11-14T17:58:51.354Z,17.76
2022-11-14T18:08:52.767Z,17.72
2022-11-14T18:18:55.983Z,17.68
2022-11-14T18:28:58.060Z,17.65
2022-11-14T18:38:59.457Z,17.61
2022-11-14T18:49:00.872Z,17.58
2022-11-14T18:59:02.271Z,17.54
2022-11-14T19:09:10.596Z,17.49
2022-11-14T19:19:12.758Z,17.44
2022-11-14T19:29:14.215Z,17.39
2022-11-14T19:39:15.587Z,17.36
2022-11-14T19:49:16.989Z,17.32
2022-11-14T19:59:23.082Z,17.27
2022-11-14T20:09:25.933Z,17.26
2022-11-14T20:19:27.746Z,17.24
2022-11-14T20:29:30.549Z,17.19
2022-11-14T20:39:32.038Z,17.17
2022-11-14T20:49:33.494Z,17.13
2022-11-14T20:59:34.968Z,17.11
2022-11-14T21:09:36.370Z,17.07
2022-11-14T21:19:37.827Z,17.07
2022-11-14T21:29:39.217Z,17.05
2022-11-14T21:39:40.627Z,17.03
2022-11-14T21:49:42.062Z,17.03
2022-11-14T21:59:43.495Z,17.03
2022-11-14T22:09:45.606Z,17.02
2022-11-14T22:19:47.202Z,17.03
2022-11-14T22:29:48.671Z,17.03
2022-11-14T22:39:50.121Z,17.04
2022-11-14T22:49:51.565Z,17.05
2022-11-14T22:59:53.051Z,17.04
2022-11-14T23:09:54.429Z,17.04
2022-11-14T23:19:56.277Z,17.04
2022-11-14T23:29:57.647Z,17.04
2022-11-14T23:39:59.023Z,17.06
2022-11-14T23:50:00.624Z,17.08
